This is the latest recevied weather packets stored in our database for station/object KO4LCK. If no packets are shown the sender has not sent any weather packets the latest 10 day(s).
| Time | Temp. | Humidity | Pressure | Rain* | Wind** | Luminosity | Snow |
|---|---|---|---|---|---|---|---|
| 1777919959 | 26.11° C | 42% | 1016.3 hPa | 0 mm | - | 802 W/m² | - |
| 1777919657 | 26.11° C | 39% | 1016.4 hPa | 0 mm | - | 809 W/m² | - |
| 1777919355 | 26.11° C | 39% | 1016.7 hPa | 0 mm | - | 744 W/m² | - |
| 1777919051 | 26.67° C | 38% | 1016.4 hPa | 0 mm | - | 782 W/m² | - |
| 1777918748 | 26.11° C | 42% | 1016.6 hPa | 0 mm | - | 819 W/m² | - |
| 1777918445 | 26.67° C | 41% | 1016.6 hPa | 0 mm | - | 820 W/m² | - |
| 1777918144 | 26.67° C | 36% | 1016.6 hPa | 0 mm | - | 823 W/m² | - |
| 1777917842 | 26.67° C | 39% | 1016.6 hPa | 0 mm | - | 812 W/m² | - |
| 1777917540 | 26.11° C | 39% | 1016.8 hPa | 0 mm | - | 829 W/m² | - |
| 1777917236 | 25.56° C | 41% | 1016.8 hPa | 0 mm | - | 853 W/m² | - |
| 1777916935 | 25.56° C | 38% | 1016.9 hPa | 0 mm | - | 792 W/m² | - |
| 1777916632 | 25.56° C | 41% | 1017 hPa | 0 mm | - | 690 W/m² | - |
| 1777916329 | 25.56° C | 39% | 1016.9 hPa | 0 mm | - | 661 W/m² | - |
| 1777916025 | 25.56° C | 40% | 1017.1 hPa | 0 mm | - | 716 W/m² | - |
| 1777915723 | 25° C | 43% | 1017.2 hPa | 0 mm | - | 815 W/m² | - |
| 1777915419 | 25.56° C | 38% | 1017.2 hPa | 0 mm | - | 826 W/m² | - |
| 1777915115 | 25° C | 42% | 1017.3 hPa | 0 mm | - | 841 W/m² | - |
| 1777914812 | 25.56° C | 39% | 1017.6 hPa | 0 mm | - | 827 W/m² | - |
| 1777914510 | 25° C | 43% | 1017.5 hPa | 0 mm | - | 842 W/m² | - |
| 1777914206 | 24.44° C | 44% | 1017.7 hPa | 0 mm | - | 833 W/m² | - |
| 1777913903 | 24.44° C | 40% | 1017.8 hPa | 0 mm | - | 801 W/m² | - |
| 1777913599 | 23.89° C | 44% | 1018 hPa | 0 mm | - | 755 W/m² | - |
| 1777913295 | 23.89° C | 43% | 1017.9 hPa | 0 mm | - | 811 W/m² | - |
| 1777912993 | 23.89° C | 43% | 1017.8 hPa | 0 mm | - | 802 W/m² | - |
| 1777912689 | 23.89° C | 44% | 1018 hPa | 0 mm | - | 801 W/m² | - |
* Rain latest hour (hover to see other rain measurements)
** Current wind speed in m/s (hover to see current wind gust speed)